Terminal Aerodrome Forecast
Issued by NWS

Home | Current Version | Previous Version | Text Only | Print | Product List | Glossary On
Versions: 1 2 3 4 5 6 7 8 9 10 11 12 13
910
FTUS42 TJSJ 250535
TAFJPS
TAF
TJPS 250535Z 2506/2606 05005KT P6SM FEW060
     FM251300 13010KT P6SM FEW030 SCT060
     FM252300 05005KT P6SM SCT060
      AMD NOT SKED 2512/2603=

USA.gov is the U.S. government's official web portal to all federal, state and local government web resources and services.